sensor_id;sensor_type;location;lat;lon;timestamp;P1;durP1;ratioP1;P2;durP2;ratioP2
39176;SDS011;24904;52.208;21.192;2023-06-14T00:01:24;17.40;;;8.40;;
39176;SDS011;24904;52.208;21.192;2023-06-14T00:06:28;10.40;;;7.10;;
39176;SDS011;24904;52.208;21.192;2023-06-14T00:11:32;12.30;;;7.60;;
39176;SDS011;24904;52.208;21.192;2023-06-14T00:16:35;12.20;;;8.00;;
39176;SDS011;24904;52.208;21.192;2023-06-14T00:21:39;10.50;;;8.20;;
39176;SDS011;24904;52.208;21.192;2023-06-14T00:26:43;13.60;;;7.70;;
39176;SDS011;24904;52.208;21.192;2023-06-14T00:31:46;16.00;;;8.30;;
39176;SDS011;24904;52.208;21.192;2023-06-14T00:36:49;13.50;;;7.90;;
39176;SDS011;24904;52.208;21.192;2023-06-14T00:41:52;14.10;;;8.20;;
39176;SDS011;24904;52.208;21.192;2023-06-14T00:46:55;18.10;;;8.00;;
39176;SDS011;24904;52.208;21.192;2023-06-14T00:51:59;11.90;;;7.70;;
39176;SDS011;24904;52.208;21.192;2023-06-14T00:57:03;11.70;;;8.40;;
39176;SDS011;24904;52.208;21.192;2023-06-14T01:02:08;13.20;;;8.20;;
39176;SDS011;24904;52.208;21.192;2023-06-14T01:07:13;13.70;;;8.60;;
39176;SDS011;24904;52.208;21.192;2023-06-14T01:12:27;11.90;;;7.70;;
39176;SDS011;24904;52.208;21.192;2023-06-14T01:17:37;17.00;;;8.60;;
39176;SDS011;24904;52.208;21.192;2023-06-14T01:22:47;13.50;;;8.40;;
39176;SDS011;24904;52.208;21.192;2023-06-14T01:27:55;14.10;;;9.50;;
39176;SDS011;24904;52.208;21.192;2023-06-14T01:33:01;12.00;;;9.70;;
39176;SDS011;24904;52.208;21.192;2023-06-14T01:38:06;14.00;;;9.80;;
39176;SDS011;24904;52.208;21.192;2023-06-14T01:43:10;13.30;;;9.50;;
39176;SDS011;24904;52.208;21.192;2023-06-14T01:48:16;13.80;;;9.30;;
39176;SDS011;24904;52.208;21.192;2023-06-14T01:53:19;14.30;;;10.60;;
39176;SDS011;24904;52.208;21.192;2023-06-14T01:58:23;12.50;;;9.60;;
39176;SDS011;24904;52.208;21.192;2023-06-14T02:03:27;18.00;;;10.70;;
39176;SDS011;24904;52.208;21.192;2023-06-14T02:08:31;16.20;;;8.50;;
39176;SDS011;24904;52.208;21.192;2023-06-14T02:13:35;16.60;;;9.50;;
39176;SDS011;24904;52.208;21.192;2023-06-14T02:18:38;16.20;;;10.30;;
39176;SDS011;24904;52.208;21.192;2023-06-14T02:23:41;15.10;;;10.30;;
39176;SDS011;24904;52.208;21.192;2023-06-14T02:28:44;15.40;;;10.30;;
39176;SDS011;24904;52.208;21.192;2023-06-14T02:33:48;14.90;;;9.80;;
39176;SDS011;24904;52.208;21.192;2023-06-14T02:38:51;12.30;;;9.60;;
39176;SDS011;24904;52.208;21.192;2023-06-14T02:43:55;15.50;;;11.00;;
39176;SDS011;24904;52.208;21.192;2023-06-14T02:49:00;14.70;;;10.90;;
39176;SDS011;24904;52.208;21.192;2023-06-14T02:54:03;17.20;;;10.70;;
39176;SDS011;24904;52.208;21.192;2023-06-14T02:59:07;11.90;;;10.30;;
39176;SDS011;24904;52.208;21.192;2023-06-14T03:04:11;16.90;;;11.20;;
39176;SDS011;24904;52.208;21.192;2023-06-14T03:09:16;14.40;;;10.60;;
39176;SDS011;24904;52.208;21.192;2023-06-14T03:14:21;17.80;;;11.00;;
39176;SDS011;24904;52.208;21.192;2023-06-14T03:19:24;15.80;;;11.80;;
39176;SDS011;24904;52.208;21.192;2023-06-14T03:24:29;15.10;;;11.20;;
39176;SDS011;24904;52.208;21.192;2023-06-14T03:29:40;14.60;;;11.00;;
39176;SDS011;24904;52.208;21.192;2023-06-14T03:43:29;15.30;;;10.20;;
39176;SDS011;24904;52.208;21.192;2023-06-14T03:48:33;17.00;;;10.40;;
39176;SDS011;24904;52.208;21.192;2023-06-14T03:53:37;12.00;;;9.30;;
39176;SDS011;24904;52.208;21.192;2023-06-14T03:58:40;15.20;;;10.80;;
39176;SDS011;24904;52.208;21.192;2023-06-14T04:04:22;14.10;;;9.00;;
39176;SDS011;24904;52.208;21.192;2023-06-14T04:09:30;14.80;;;10.30;;
39176;SDS011;24904;52.208;21.192;2023-06-14T04:14:34;12.30;;;9.20;;
39176;SDS011;24904;52.208;21.192;2023-06-14T04:19:37;14.00;;;9.60;;
39176;SDS011;24904;52.208;21.192;2023-06-14T04:24:40;17.60;;;10.00;;
39176;SDS011;24904;52.208;21.192;2023-06-14T04:29:46;19.80;;;11.20;;
39176;SDS011;24904;52.208;21.192;2023-06-14T04:34:55;15.30;;;10.80;;
39176;SDS011;24904;52.208;21.192;2023-06-14T04:39:59;13.60;;;9.60;;
39176;SDS011;24904;52.208;21.192;2023-06-14T04:45:07;21.50;;;10.30;;
39176;SDS011;24904;52.208;21.192;2023-06-14T04:50:12;14.40;;;9.90;;
39176;SDS011;24904;52.208;21.192;2023-06-14T04:55:16;12.70;;;10.00;;
39176;SDS011;24904;52.208;21.192;2023-06-14T05:00:20;16.70;;;10.10;;
39176;SDS011;24904;52.208;21.192;2023-06-14T05:05:24;12.50;;;10.00;;
39176;SDS011;24904;52.208;21.192;2023-06-14T05:10:27;16.40;;;10.60;;
39176;SDS011;24904;52.208;21.192;2023-06-14T05:15:31;13.10;;;10.20;;
39176;SDS011;24904;52.208;21.192;2023-06-14T05:20:34;15.90;;;10.60;;
39176;SDS011;24904;52.208;21.192;2023-06-14T05:25:38;13.60;;;9.90;;
39176;SDS011;24904;52.208;21.192;2023-06-14T05:30:41;16.00;;;10.10;;
39176;SDS011;24904;52.208;21.192;2023-06-14T05:35:45;13.60;;;10.20;;
39176;SDS011;24904;52.208;21.192;2023-06-14T05:40:48;14.20;;;10.20;;
39176;SDS011;24904;52.208;21.192;2023-06-14T05:45:51;13.00;;;10.00;;
39176;SDS011;24904;52.208;21.192;2023-06-14T05:50:54;14.60;;;10.20;;
39176;SDS011;24904;52.208;21.192;2023-06-14T05:55:57;15.20;;;9.80;;
39176;SDS011;24904;52.208;21.192;2023-06-14T06:01:00;14.50;;;9.90;;
39176;SDS011;24904;52.208;21.192;2023-06-14T06:06:03;13.30;;;9.90;;
39176;SDS011;24904;52.208;21.192;2023-06-14T06:11:06;14.40;;;10.40;;
39176;SDS011;24904;52.208;21.192;2023-06-14T06:16:09;14.20;;;10.10;;
39176;SDS011;24904;52.208;21.192;2023-06-14T06:21:12;13.80;;;9.40;;
39176;SDS011;24904;52.208;21.192;2023-06-14T06:26:15;12.70;;;8.80;;
39176;SDS011;24904;52.208;21.192;2023-06-14T06:31:18;13.80;;;10.20;;
39176;SDS011;24904;52.208;21.192;2023-06-14T06:36:23;18.60;;;9.30;;
39176;SDS011;24904;52.208;21.192;2023-06-14T06:41:26;14.00;;;9.10;;
39176;SDS011;24904;52.208;21.192;2023-06-14T06:46:29;16.30;;;9.80;;
39176;SDS011;24904;52.208;21.192;2023-06-14T06:51:32;13.40;;;9.10;;
39176;SDS011;24904;52.208;21.192;2023-06-14T06:56:36;12.10;;;8.10;;
39176;SDS011;24904;52.208;21.192;2023-06-14T07:01:39;12.60;;;9.00;;
39176;SDS011;24904;52.208;21.192;2023-06-14T07:06:42;12.80;;;9.90;;
39176;SDS011;24904;52.208;21.192;2023-06-14T07:11:46;15.90;;;8.20;;
39176;SDS011;24904;52.208;21.192;2023-06-14T07:16:49;17.50;;;8.30;;
39176;SDS011;24904;52.208;21.192;2023-06-14T07:21:52;13.70;;;8.10;;
39176;SDS011;24904;52.208;21.192;2023-06-14T07:26:56;11.20;;;7.90;;
39176;SDS011;24904;52.208;21.192;2023-06-14T07:31:59;12.60;;;7.90;;
39176;SDS011;24904;52.208;21.192;2023-06-14T07:37:02;10.00;;;8.50;;
39176;SDS011;24904;52.208;21.192;2023-06-14T07:42:06;13.80;;;8.10;;
39176;SDS011;24904;52.208;21.192;2023-06-14T07:47:09;10.30;;;7.10;;
39176;SDS011;24904;52.208;21.192;2023-06-14T07:52:12;15.20;;;7.00;;
39176;SDS011;24904;52.208;21.192;2023-06-14T07:57:15;7.80;;;5.90;;
39176;SDS011;24904;52.208;21.192;2023-06-14T08:02:21;12.30;;;7.90;;
39176;SDS011;24904;52.208;21.192;2023-06-14T08:07:24;10.30;;;7.20;;
39176;SDS011;24904;52.208;21.192;2023-06-14T08:12:27;11.70;;;6.60;;
39176;SDS011;24904;52.208;21.192;2023-06-14T08:17:30;10.50;;;5.90;;
39176;SDS011;24904;52.208;21.192;2023-06-14T08:22:33;12.80;;;5.40;;
39176;SDS011;24904;52.208;21.192;2023-06-14T08:27:37;15.20;;;6.20;;
39176;SDS011;24904;52.208;21.192;2023-06-14T08:32:40;11.20;;;6.30;;
39176;SDS011;24904;52.208;21.192;2023-06-14T08:37:43;10.60;;;5.30;;
39176;SDS011;24904;52.208;21.192;2023-06-14T08:42:46;8.40;;;6.50;;
39176;SDS011;24904;52.208;21.192;2023-06-14T08:47:53;8.10;;;5.80;;
39176;SDS011;24904;52.208;21.192;2023-06-14T08:52:59;10.90;;;6.60;;
39176;SDS011;24904;52.208;21.192;2023-06-14T08:58:03;14.80;;;6.80;;
39176;SDS011;24904;52.208;21.192;2023-06-14T09:03:06;16.50;;;7.40;;
39176;SDS011;24904;52.208;21.192;2023-06-14T09:08:14;18.20;;;7.60;;
39176;SDS011;24904;52.208;21.192;2023-06-14T09:13:20;11.40;;;7.00;;
39176;SDS011;24904;52.208;21.192;2023-06-14T09:18:23;11.20;;;6.10;;
39176;SDS011;24904;52.208;21.192;2023-06-14T09:23:37;9.60;;;6.10;;
39176;SDS011;24904;52.208;21.192;2023-06-14T09:28:44;8.60;;;5.50;;
39176;SDS011;24904;52.208;21.192;2023-06-14T09:33:48;11.10;;;5.80;;
39176;SDS011;24904;52.208;21.192;2023-06-14T09:38:54;11.70;;;5.90;;
39176;SDS011;24904;52.208;21.192;2023-06-14T09:43:59;10.90;;;5.70;;
39176;SDS011;24904;52.208;21.192;2023-06-14T09:49:03;8.20;;;5.00;;
39176;SDS011;24904;52.208;21.192;2023-06-14T09:54:07;14.50;;;5.50;;
39176;SDS011;24904;52.208;21.192;2023-06-14T09:59:17;13.40;;;5.10;;
39176;SDS011;24904;52.208;21.192;2023-06-14T10:04:28;15.00;;;5.50;;
39176;SDS011;24904;52.208;21.192;2023-06-14T10:09:33;18.00;;;5.00;;
39176;SDS011;24904;52.208;21.192;2023-06-14T10:14:36;11.20;;;4.30;;
39176;SDS011;24904;52.208;21.192;2023-06-14T10:19:42;7.60;;;4.40;;
39176;SDS011;24904;52.208;21.192;2023-06-14T10:24:49;9.70;;;4.10;;
39176;SDS011;24904;52.208;21.192;2023-06-14T10:30:07;4.80;;;3.60;;
39176;SDS011;24904;52.208;21.192;2023-06-14T10:35:15;6.10;;;3.90;;
39176;SDS011;24904;52.208;21.192;2023-06-14T10:40:30;9.20;;;4.10;;
39176;SDS011;24904;52.208;21.192;2023-06-14T10:45:33;7.40;;;4.40;;
39176;SDS011;24904;52.208;21.192;2023-06-14T10:50:36;6.90;;;4.20;;
39176;SDS011;24904;52.208;21.192;2023-06-14T10:55:46;6.50;;;4.30;;
39176;SDS011;24904;52.208;21.192;2023-06-14T11:00:49;9.80;;;4.50;;
39176;SDS011;24904;52.208;21.192;2023-06-14T11:05:53;8.10;;;4.50;;
39176;SDS011;24904;52.208;21.192;2023-06-14T11:10:57;7.40;;;4.70;;
39176;SDS011;24904;52.208;21.192;2023-06-14T11:16:02;60.80;;;27.90;;
39176;SDS011;24904;52.208;21.192;2023-06-14T11:21:14;15.90;;;8.00;;
39176;SDS011;24904;52.208;21.192;2023-06-14T11:26:25;18.40;;;10.30;;
39176;SDS011;24904;52.208;21.192;2023-06-14T11:31:29;9.00;;;3.80;;
39176;SDS011;24904;52.208;21.192;2023-06-14T11:36:33;5.00;;;3.20;;
39176;SDS011;24904;52.208;21.192;2023-06-14T11:41:37;5.60;;;3.20;;
39176;SDS011;24904;52.208;21.192;2023-06-14T11:46:43;10.40;;;3.50;;
39176;SDS011;24904;52.208;21.192;2023-06-14T11:51:47;4.80;;;2.80;;
39176;SDS011;24904;52.208;21.192;2023-06-14T11:56:52;6.00;;;2.10;;
39176;SDS011;24904;52.208;21.192;2023-06-14T12:01:57;4.70;;;2.60;;
39176;SDS011;24904;52.208;21.192;2023-06-14T12:07:09;5.40;;;2.60;;
39176;SDS011;24904;52.208;21.192;2023-06-14T12:12:16;8.70;;;2.20;;
39176;SDS011;24904;52.208;21.192;2023-06-14T12:17:20;7.70;;;3.20;;
39176;SDS011;24904;52.208;21.192;2023-06-14T12:22:25;6.80;;;2.10;;
39176;SDS011;24904;52.208;21.192;2023-06-14T12:27:32;4.00;;;2.40;;
39176;SDS011;24904;52.208;21.192;2023-06-14T12:32:38;5.10;;;2.20;;
39176;SDS011;24904;52.208;21.192;2023-06-14T12:37:43;4.50;;;2.10;;
39176;SDS011;24904;52.208;21.192;2023-06-14T12:53:17;4.50;;;2.00;;
39176;SDS011;24904;52.208;21.192;2023-06-14T12:58:22;5.30;;;2.00;;
39176;SDS011;24904;52.208;21.192;2023-06-14T13:03:28;4.50;;;2.30;;
39176;SDS011;24904;52.208;21.192;2023-06-14T13:08:35;4.40;;;2.30;;
39176;SDS011;24904;52.208;21.192;2023-06-14T13:13:40;4.10;;;2.20;;
39176;SDS011;24904;52.208;21.192;2023-06-14T13:18:45;6.90;;;2.50;;
39176;SDS011;24904;52.208;21.192;2023-06-14T13:23:50;5.30;;;2.50;;
39176;SDS011;24904;52.208;21.192;2023-06-14T13:28:55;5.70;;;2.10;;
39176;SDS011;24904;52.208;21.192;2023-06-14T13:34:00;5.10;;;2.50;;
39176;SDS011;24904;52.208;21.192;2023-06-14T13:39:06;8.40;;;2.00;;
39176;SDS011;24904;52.208;21.192;2023-06-14T13:44:12;4.60;;;1.90;;
39176;SDS011;24904;52.208;21.192;2023-06-14T13:49:20;6.60;;;2.60;;
39176;SDS011;24904;52.208;21.192;2023-06-14T13:54:26;4.00;;;2.20;;
39176;SDS011;24904;52.208;21.192;2023-06-14T13:59:31;3.90;;;1.90;;
39176;SDS011;24904;52.208;21.192;2023-06-14T14:04:36;6.30;;;2.10;;
39176;SDS011;24904;52.208;21.192;2023-06-14T14:09:41;6.60;;;1.70;;
39176;SDS011;24904;52.208;21.192;2023-06-14T14:14:46;3.60;;;1.90;;
39176;SDS011;24904;52.208;21.192;2023-06-14T14:19:52;5.60;;;2.20;;
39176;SDS011;24904;52.208;21.192;2023-06-14T14:24:57;5.50;;;2.00;;
39176;SDS011;24904;52.208;21.192;2023-06-14T14:30:02;3.20;;;1.80;;
39176;SDS011;24904;52.208;21.192;2023-06-14T14:35:08;4.10;;;2.10;;
39176;SDS011;24904;52.208;21.192;2023-06-14T14:40:14;2.80;;;1.90;;
39176;SDS011;24904;52.208;21.192;2023-06-14T14:45:19;4.10;;;2.50;;
39176;SDS011;24904;52.208;21.192;2023-06-14T14:50:24;10.30;;;2.60;;
39176;SDS011;24904;52.208;21.192;2023-06-14T14:55:29;4.40;;;2.30;;
39176;SDS011;24904;52.208;21.192;2023-06-14T15:00:36;4.80;;;2.70;;
39176;SDS011;24904;52.208;21.192;2023-06-14T15:05:41;6.50;;;2.40;;
39176;SDS011;24904;52.208;21.192;2023-06-14T15:10:46;9.50;;;2.90;;
39176;SDS011;24904;52.208;21.192;2023-06-14T15:15:51;6.30;;;3.20;;
39176;SDS011;24904;52.208;21.192;2023-06-14T15:20:56;8.30;;;3.10;;
39176;SDS011;24904;52.208;21.192;2023-06-14T15:26:02;7.70;;;3.30;;
39176;SDS011;24904;52.208;21.192;2023-06-14T15:31:07;9.40;;;3.40;;
39176;SDS011;24904;52.208;21.192;2023-06-14T15:36:12;11.20;;;4.00;;
39176;SDS011;24904;52.208;21.192;2023-06-14T15:41:17;10.80;;;3.70;;
39176;SDS011;24904;52.208;21.192;2023-06-14T15:46:22;4.80;;;3.10;;
39176;SDS011;24904;52.208;21.192;2023-06-14T15:51:27;7.00;;;3.10;;
39176;SDS011;24904;52.208;21.192;2023-06-14T16:02:36;7.60;;;5.20;;
39176;SDS011;24904;52.208;21.192;2023-06-14T16:07:41;5.10;;;3.50;;
39176;SDS011;24904;52.208;21.192;2023-06-14T16:12:46;6.10;;;3.80;;
39176;SDS011;24904;52.208;21.192;2023-06-14T16:17:51;8.40;;;3.60;;
39176;SDS011;24904;52.208;21.192;2023-06-14T16:22:56;16.40;;;4.60;;
39176;SDS011;24904;52.208;21.192;2023-06-14T16:28:01;10.40;;;4.20;;
39176;SDS011;24904;52.208;21.192;2023-06-14T16:33:08;8.80;;;4.50;;
39176;SDS011;24904;52.208;21.192;2023-06-14T16:38:13;7.30;;;4.90;;
39176;SDS011;24904;52.208;21.192;2023-06-14T16:43:18;12.00;;;5.50;;
39176;SDS011;24904;52.208;21.192;2023-06-14T16:48:23;6.60;;;4.80;;
39176;SDS011;24904;52.208;21.192;2023-06-14T16:53:28;8.50;;;4.80;;
39176;SDS011;24904;52.208;21.192;2023-06-14T16:58:33;10.60;;;5.00;;
39176;SDS011;24904;52.208;21.192;2023-06-14T17:03:39;8.10;;;4.50;;
39176;SDS011;24904;52.208;21.192;2023-06-14T17:08:44;6.30;;;4.50;;
39176;SDS011;24904;52.208;21.192;2023-06-14T17:13:49;10.70;;;4.80;;
39176;SDS011;24904;52.208;21.192;2023-06-14T17:18:54;9.50;;;4.60;;
39176;SDS011;24904;52.208;21.192;2023-06-14T17:23:59;6.20;;;4.40;;
39176;SDS011;24904;52.208;21.192;2023-06-14T17:29:22;7.00;;;4.50;;
39176;SDS011;24904;52.208;21.192;2023-06-14T17:34:28;11.70;;;4.60;;
39176;SDS011;24904;52.208;21.192;2023-06-14T17:39:34;10.10;;;4.80;;
39176;SDS011;24904;52.208;21.192;2023-06-14T17:44:41;7.50;;;4.40;;
39176;SDS011;24904;52.208;21.192;2023-06-14T17:49:46;7.50;;;4.60;;
39176;SDS011;24904;52.208;21.192;2023-06-14T17:54:54;5.20;;;4.20;;
39176;SDS011;24904;52.208;21.192;2023-06-14T17:59:59;5.30;;;4.30;;
39176;SDS011;24904;52.208;21.192;2023-06-14T18:05:24;10.40;;;4.40;;
39176;SDS011;24904;52.208;21.192;2023-06-14T18:10:29;6.50;;;4.90;;
39176;SDS011;24904;52.208;21.192;2023-06-14T18:15:34;10.50;;;4.90;;
39176;SDS011;24904;52.208;21.192;2023-06-14T18:20:39;8.50;;;4.70;;
39176;SDS011;24904;52.208;21.192;2023-06-14T18:25:44;7.80;;;4.50;;
39176;SDS011;24904;52.208;21.192;2023-06-14T18:30:49;6.30;;;4.70;;
39176;SDS011;24904;52.208;21.192;2023-06-14T18:35:54;6.30;;;4.80;;
39176;SDS011;24904;52.208;21.192;2023-06-14T18:40:59;8.90;;;4.80;;
39176;SDS011;24904;52.208;21.192;2023-06-14T18:46:04;9.10;;;4.90;;
39176;SDS011;24904;52.208;21.192;2023-06-14T18:51:10;11.00;;;4.90;;
39176;SDS011;24904;52.208;21.192;2023-06-14T18:56:15;8.00;;;5.50;;
39176;SDS011;24904;52.208;21.192;2023-06-14T19:01:20;13.90;;;6.00;;
39176;SDS011;24904;52.208;21.192;2023-06-14T19:06:25;14.40;;;5.70;;
39176;SDS011;24904;52.208;21.192;2023-06-14T19:11:30;11.80;;;5.30;;
39176;SDS011;24904;52.208;21.192;2023-06-14T19:16:36;11.20;;;5.30;;
39176;SDS011;24904;52.208;21.192;2023-06-14T19:21:41;7.60;;;5.90;;
39176;SDS011;24904;52.208;21.192;2023-06-14T19:26:46;12.00;;;6.50;;
39176;SDS011;24904;52.208;21.192;2023-06-14T19:31:52;9.90;;;6.80;;
39176;SDS011;24904;52.208;21.192;2023-06-14T19:36:57;12.80;;;6.20;;
39176;SDS011;24904;52.208;21.192;2023-06-14T19:42:02;9.90;;;6.20;;
39176;SDS011;24904;52.208;21.192;2023-06-14T19:47:08;10.70;;;6.40;;
39176;SDS011;24904;52.208;21.192;2023-06-14T19:52:14;9.80;;;6.90;;
39176;SDS011;24904;52.208;21.192;2023-06-14T20:03:11;12.70;;;6.90;;
39176;SDS011;24904;52.208;21.192;2023-06-14T20:08:17;8.10;;;6.60;;
39176;SDS011;24904;52.208;21.192;2023-06-14T20:13:25;11.10;;;7.10;;
39176;SDS011;24904;52.208;21.192;2023-06-14T20:18:30;11.10;;;6.90;;
39176;SDS011;24904;52.208;21.192;2023-06-14T20:23:35;8.80;;;7.00;;
39176;SDS011;24904;52.208;21.192;2023-06-14T20:28:41;11.00;;;6.70;;
39176;SDS011;24904;52.208;21.192;2023-06-14T20:33:46;8.70;;;6.50;;
39176;SDS011;24904;52.208;21.192;2023-06-14T20:38:51;9.30;;;6.60;;
39176;SDS011;24904;52.208;21.192;2023-06-14T20:43:57;9.30;;;6.70;;
39176;SDS011;24904;52.208;21.192;2023-06-14T20:49:04;11.90;;;7.20;;
39176;SDS011;24904;52.208;21.192;2023-06-14T20:54:11;7.50;;;6.50;;
39176;SDS011;24904;52.208;21.192;2023-06-14T21:07:20;8.60;;;7.00;;
39176;SDS011;24904;52.208;21.192;2023-06-14T21:12:27;9.00;;;6.80;;
39176;SDS011;24904;52.208;21.192;2023-06-14T21:17:32;12.20;;;8.20;;
39176;SDS011;24904;52.208;21.192;2023-06-14T21:22:37;9.80;;;7.00;;
39176;SDS011;24904;52.208;21.192;2023-06-14T21:27:42;12.80;;;7.70;;
39176;SDS011;24904;52.208;21.192;2023-06-14T21:32:47;12.50;;;7.50;;
39176;SDS011;24904;52.208;21.192;2023-06-14T21:37:53;9.70;;;7.20;;
39176;SDS011;24904;52.208;21.192;2023-06-14T21:42:58;15.80;;;8.00;;
39176;SDS011;24904;52.208;21.192;2023-06-14T21:48:03;12.00;;;7.80;;
39176;SDS011;24904;52.208;21.192;2023-06-14T21:53:09;14.60;;;8.40;;
39176;SDS011;24904;52.208;21.192;2023-06-14T21:58:14;9.90;;;8.10;;
39176;SDS011;24904;52.208;21.192;2023-06-14T22:11:31;13.40;;;8.20;;
39176;SDS011;24904;52.208;21.192;2023-06-14T22:16:36;10.00;;;8.00;;
39176;SDS011;24904;52.208;21.192;2023-06-14T22:21:44;12.60;;;8.50;;
39176;SDS011;24904;52.208;21.192;2023-06-14T22:26:52;11.30;;;8.10;;
39176;SDS011;24904;52.208;21.192;2023-06-14T22:32:01;13.30;;;8.40;;
39176;SDS011;24904;52.208;21.192;2023-06-14T22:37:06;13.00;;;9.40;;
39176;SDS011;24904;52.208;21.192;2023-06-14T22:42:12;13.20;;;8.80;;
39176;SDS011;24904;52.208;21.192;2023-06-14T22:47:19;14.30;;;9.00;;
39176;SDS011;24904;52.208;21.192;2023-06-14T22:52:26;15.00;;;10.80;;
39176;SDS011;24904;52.208;21.192;2023-06-14T22:57:55;13.00;;;9.80;;
39176;SDS011;24904;52.208;21.192;2023-06-14T23:03:02;14.50;;;10.00;;
39176;SDS011;24904;52.208;21.192;2023-06-14T23:08:08;12.70;;;9.30;;
39176;SDS011;24904;52.208;21.192;2023-06-14T23:13:14;14.20;;;10.40;;
39176;SDS011;24904;52.208;21.192;2023-06-14T23:18:19;14.20;;;9.80;;
39176;SDS011;24904;52.208;21.192;2023-06-14T23:23:25;12.60;;;10.40;;
39176;SDS011;24904;52.208;21.192;2023-06-14T23:28:31;16.50;;;11.80;;
39176;SDS011;24904;52.208;21.192;2023-06-14T23:33:36;16.20;;;10.30;;
39176;SDS011;24904;52.208;21.192;2023-06-14T23:38:41;19.90;;;11.70;;
39176;SDS011;24904;52.208;21.192;2023-06-14T23:43:50;16.10;;;11.70;;
39176;SDS011;24904;52.208;21.192;2023-06-14T23:48:55;19.30;;;11.00;;
39176;SDS011;24904;52.208;21.192;2023-06-14T23:54:00;18.00;;;11.10;;
39176;SDS011;24904;52.208;21.192;2023-06-14T23:59:06;16.00;;;11.00;;
